首页
METAR-TAF:

METAR-TAF

机场 :

坎佩尔, 法国

纬度: 47-58N, 经度: 004-10W, 海拔: 92米

当前天气观测

该预报发布于29分钟前的13:00 UTC
风速14节,风向,有时为27节阵风
温度 13°C
湿度 77%
气压 989 hPa
能见度10公里或以上
多云层高于3600英尺
多云层高于5200英尺
阴天层高于6200英尺

METAR: LFRQ 201300Z AUTO 19014G27KT 9999 BKN036 BKN052 OVC062 13/09 Q0989 TEMPO 20025G40KT 4000 RA BKN008 SCT015CB

时间: 14:29 (13:29 UTC)

预报

该预报发布于2小时和29分钟前的11:00 UTC
预报有效从20日的 12点(UTC)到 21日的 12点(UTC)
风速20节,风向南转西南,有时为30节阵风
能见度10公里或以上
多云层高于3000英尺
短暂存在
从 20日的 12点(UTC)到 20日的 21点(UTC)
风速25节,风向南转西南,有时为40节阵风
能見度: 4000
多云层高于800英尺
散云层高于1500英尺, 积雨云.
成为
从 20日的 20点(UTC)到 20日的 22点(UTC)
风速20节,风向西,有时为30节阵风
短暂存在
从 21日的 00点(UTC)到 21日的 06点(UTC)
小阵雨
成为
从 21日的 06点(UTC)到 21日的 09点(UTC)
风速14节,风向西南,有时为25节阵风
短暂存在
从 21日的 09点(UTC)到 21日的 12点(UTC)
风速13节,风向南转南东,有时为27节阵风
多云层高于1400英尺

TAF: LFRQ 201100Z 2012/2112 20020G30KT 9999 BKN030 TEMPO 2012/2021 20025G40KT 4000 RA BKN008 SCT015CB BECMG 2020/2022 26020G30KT TEMPO 2100/2106 -SHRA BECMG 2106/2109 22014G25KT TEMPO 2109/2112 15013G27KT RA BKN014

超过4000个机场的气象观测和天气预报(METAR&TAF报告)。

可查询的气象台以黄色和红色小点在地图上表示。

将鼠标移到小点上方,可查看气象台名称。

然后点击查看天气观测和预报。

如需切换地图:点击带黑十字的绿色按钮放大地图;点击带横线的绿色按钮缩小地图;或者点击绿色箭头查看邻近地区的地图。


METAR-TAF: